Time;durP1;ratioP1;P1;durP2;ratioP2;P2;SDS_P1;SDS_P2;PMS_P1;PMS_P2;Temp;Humidity;BMP_temperature;BMP_pressure;BME280_temperature;BME280_humidity;BME280_pressure;Samples;Min_cycle;Max_cycle;Signal;HPM_P1;HPM_P2
2021/10/10 00:01:31;;;;;;;6.00;4.22;;;22.40;43.80;;;;;;4781530;29;20134;-59
2021/10/10 00:03:58;;;;;;;4.88;3.78;;;22.30;43.70;;;;;;4781421;29;20051;-59
2021/10/10 00:06:25;;;;;;;3.92;3.53;;;22.40;43.80;;;;;;4763698;29;20467;-59
2021/10/10 00:08:53;;;;;;;3.67;3.33;;;22.30;43.80;;;;;;4781488;29;20189;-59
2021/10/10 00:11:21;;;;;;;4.82;4.10;;;22.30;43.80;;;;;;4781466;29;20098;-59
2021/10/10 00:13:48;;;;;;;5.70;4.25;;;22.30;43.80;;;;;;4781325;29;20238;-59
2021/10/10 00:16:15;;;;;;;4.72;3.45;;;22.30;43.80;;;;;;4762167;29;20152;-59
2021/10/10 00:18:43;;;;;;;7.85;4.13;;;22.30;43.90;;;;;;4781327;29;20059;-59
2021/10/10 00:21:10;;;;;;;5.10;3.75;;;22.30;43.90;;;;;;4781751;29;20151;-60
2021/10/10 00:23:37;;;;;;;4.85;3.60;;;22.30;43.90;;;;;;4781336;29;20090;-59
2021/10/10 00:26:04;;;;;;;4.82;3.72;;;22.30;44.50;;;;;;4761065;29;20521;-60
2021/10/10 00:28:32;;;;;;;5.05;3.90;;;22.30;43.90;;;;;;4779931;29;20083;-59
2021/10/10 00:30:59;;;;;;;4.38;3.70;;;22.30;43.90;;;;;;4781315;29;20051;-59
2021/10/10 00:33:26;;;;;;;3.75;3.33;;;22.30;44.00;;;;;;4782846;29;20120;-59
2021/10/10 00:35:54;;;;;;;5.88;4.03;;;22.30;44.00;;;;;;4767099;29;20166;-60
2021/10/10 00:38:21;;;;;;;4.25;3.65;;;22.30;44.00;;;;;;4784033;29;20116;-59
2021/10/10 00:40:48;;;;;;;4.72;4.18;;;22.30;44.00;;;;;;4784598;29;20047;-59
2021/10/10 00:43:15;;;;;;;4.75;3.85;;;22.30;44.10;;;;;;4784359;29;20066;-60
2021/10/10 00:45:50;;;;;;;4.00;3.40;;;22.20;44.00;;;;;;4771762;29;20146;-59
2021/10/10 00:48:18;;;;;;;4.13;3.70;;;22.30;44.10;;;;;;4783573;29;20055;-59
2021/10/10 00:50:45;;;;;;;5.47;3.88;;;22.30;44.10;;;;;;4784980;29;20134;-59
2021/10/10 00:53:16;;;;;;;4.03;3.55;;;22.20;44.00;;;;;;4784308;29;20143;-59
2021/10/10 00:55:50;;;;;;;3.95;3.60;;;22.30;44.10;;;;;;4772319;29;20053;-59
2021/10/10 00:58:22;;;;;;;4.70;3.65;;;22.30;44.10;;;;;;4783890;29;20120;-59
2021/10/10 01:00:51;;;;;;;5.07;3.75;;;22.30;44.10;;;;;;4784184;29;20055;-59
2021/10/10 01:03:19;;;;;;;5.03;3.78;;;22.20;44.10;;;;;;4784164;29;20398;-59
2021/10/10 01:05:50;;;;;;;4.53;3.90;;;22.30;44.10;;;;;;4769402;29;20058;-59
2021/10/10 01:08:18;;;;;;;4.47;3.83;;;22.30;44.20;;;;;;4783863;29;20062;-60
2021/10/10 01:10:48;;;;;;;4.05;3.63;;;22.30;44.20;;;;;;4783957;29;20101;-59
2021/10/10 01:13:17;;;;;;;4.28;3.47;;;22.30;44.20;;;;;;4784299;29;20560;-59
2021/10/10 01:15:44;;;;;;;3.88;3.47;;;22.30;44.20;;;;;;4772819;29;20576;-59
2021/10/10 01:18:21;;;;;;;3.50;3.20;;;22.20;44.10;;;;;;4783940;29;20476;-59
2021/10/10 01:20:48;;;;;;;4.30;3.53;;;22.30;44.20;;;;;;4783456;29;20119;-59
2021/10/10 01:23:15;;;;;;;4.20;3.70;;;22.30;44.20;;;;;;4783731;29;20091;-59
2021/10/10 01:25:43;;;;;;;3.83;3.53;;;22.20;44.20;;;;;;4773646;29;20328;-59
2021/10/10 01:28:10;;;;;;;4.88;3.80;;;22.30;44.20;;;;;;4778533;29;20059;-59
2021/10/10 01:30:37;;;;;;;4.40;3.45;;;22.20;44.20;;;;;;4783461;29;20544;-59
2021/10/10 01:33:09;;;;;;;6.18;3.63;;;22.30;44.20;;;;;;4783523;29;20094;-59
2021/10/10 01:35:37;;;;;;;3.95;3.50;;;22.20;44.20;;;;;;4772424;29;20055;-59
2021/10/10 01:38:06;;;;;;;4.07;3.22;;;22.20;44.20;;;;;;4777896;29;20146;-59
2021/10/10 01:40:34;;;;;;;4.35;3.30;;;22.30;44.20;;;;;;4782315;29;20139;-59
2021/10/10 01:43:05;;;;;;;3.50;3.20;;;22.30;44.20;;;;;;4782235;29;20059;-59
2021/10/10 01:45:33;;;;;;;3.05;2.75;;;22.20;44.20;;;;;;4770847;29;21178;-59
2021/10/10 01:48:00;;;;;;;4.38;3.45;;;22.20;44.20;;;;;;4777781;29;20055;-59
2021/10/10 01:50:28;;;;;;;3.95;3.55;;;22.20;44.20;;;;;;4783476;29;20055;-59
2021/10/10 01:52:55;;;;;;;4.22;3.08;;;22.20;44.30;;;;;;4783127;29;20086;-59
2021/10/10 01:55:22;;;;;;;4.45;3.40;;;22.20;44.30;;;;;;4772138;29;20081;-59
2021/10/10 01:57:49;;;;;;;5.03;3.97;;;22.20;44.30;;;;;;4777848;29;20132;-59
2021/10/10 02:00:16;;;;;;;5.07;3.33;;;22.20;44.30;;;;;;4782720;29;20055;-59
2021/10/10 02:02:43;;;;;;;3.55;2.88;;;22.20;44.30;;;;;;4783054;29;20078;-59
2021/10/10 02:05:11;;;;;;;6.18;3.17;;;22.20;44.30;;;;;;4768412;29;20074;-59
2021/10/10 02:07:39;;;;;;;3.60;3.30;;;22.20;44.30;;;;;;4777733;29;20089;-59
2021/10/10 02:10:08;;;;;;;3.13;2.78;;;22.20;44.30;;;;;;4782675;29;20572;-60
2021/10/10 02:12:36;;;;;;;3.20;2.70;;;22.20;44.40;;;;;;4783614;29;20437;-59
2021/10/10 02:15:05;;;;;;;3.47;3.17;;;22.20;44.40;;;;;;4777312;29;20058;-59
2021/10/10 02:17:32;;;;;;;3.20;2.70;;;22.20;44.40;;;;;;4772465;29;20608;-59
2021/10/10 02:20:00;;;;;;;3.47;2.97;;;22.20;44.40;;;;;;4782308;29;20051;-59
2021/10/10 02:22:28;;;;;;;4.25;3.58;;;22.20;44.50;;;;;;4781829;30;20055;-59
2021/10/10 02:24:55;;;;;;;4.13;3.35;;;22.20;44.50;;;;;;4775940;29;20506;-59
2021/10/10 02:27:22;;;;;;;4.25;3.15;;;22.20;44.40;;;;;;4772422;29;20551;-59
2021/10/10 02:29:49;;;;;;;3.40;3.05;;;22.20;44.40;;;;;;4782858;29;20109;-59
2021/10/10 02:32:16;;;;;;;3.58;3.03;;;22.20;44.40;;;;;;4783061;29;20057;-60
2021/10/10 02:34:43;;;;;;;4.32;3.70;;;22.20;44.40;;;;;;4776652;29;20118;-60
2021/10/10 02:37:11;;;;;;;3.65;2.97;;;22.20;44.40;;;;;;4772344;29;20143;-59
2021/10/10 02:39:38;;;;;;;3.30;2.85;;;22.20;44.40;;;;;;4782018;29;20138;-59
2021/10/10 02:42:05;;;;;;;3.38;3.08;;;22.20;44.40;;;;;;4781995;29;20135;-59
2021/10/10 02:44:33;;;;;;;3.28;2.95;;;22.20;44.50;;;;;;4777933;29;20136;-60
2021/10/10 02:47:01;;;;;;;4.03;3.20;;;22.20;44.50;;;;;;4767619;30;20267;-59
2021/10/10 02:49:28;;;;;;;3.92;2.85;;;22.20;44.50;;;;;;4764624;30;20104;-59
2021/10/10 02:51:55;;;;;;;3.55;2.97;;;22.20;44.50;;;;;;4763237;30;20055;-60
2021/10/10 02:54:22;;;;;;;3.45;2.90;;;22.20;44.60;;;;;;4763155;30;20108;-60
2021/10/10 02:56:50;;;;;;;4.65;3.08;;;22.10;44.60;;;;;;4767125;29;20653;-59
2021/10/10 02:59:17;;;;;;;3.47;3.00;;;22.10;44.60;;;;;;4782142;29;20422;-59
2021/10/10 03:01:44;;;;;;;3.60;3.08;;;22.20;44.60;;;;;;4782178;29;20087;-60
2021/10/10 03:04:11;;;;;;;3.08;2.60;;;22.10;44.60;;;;;;4782591;29;20055;-59
2021/10/10 03:06:39;;;;;;;3.05;2.78;;;22.20;44.70;;;;;;4762066;29;20548;-60
2021/10/10 03:09:06;;;;;;;5.75;3.00;;;22.20;44.60;;;;;;4764402;30;20513;-59
2021/10/10 03:11:33;;;;;;;3.08;2.65;;;22.10;44.60;;;;;;4764286;30;20135;-59
2021/10/10 03:14:01;;;;;;;3.28;2.97;;;22.20;44.60;;;;;;4764286;30;20464;-59
2021/10/10 03:16:29;;;;;;;3.20;2.80;;;22.10;44.60;;;;;;4762356;30;20061;-59
2021/10/10 03:18:57;;;;;;;4.30;3.15;;;22.20;44.70;;;;;;4780684;29;20107;-59
2021/10/10 03:21:24;;;;;;;3.35;3.05;;;22.20;44.70;;;;;;4781810;29;20704;-59
2021/10/10 03:23:51;;;;;;;3.13;2.83;;;22.10;45.20;;;;;;4781790;29;20150;-59
2021/10/10 03:26:18;;;;;;;4.00;3.10;;;22.10;44.70;;;;;;4766367;29;20059;-59
2021/10/10 03:28:45;;;;;;;3.08;2.58;;;22.10;44.70;;;;;;4780529;29;20050;-60
2021/10/10 03:31:12;;;;;;;2.92;2.63;;;22.10;44.70;;;;;;4781710;29;20569;-59
2021/10/10 03:33:40;;;;;;;3.40;2.88;;;22.10;44.70;;;;;;4782499;29;20062;-59
2021/10/10 03:36:07;;;;;;;3.05;2.78;;;22.10;44.70;;;;;;4764070;29;20418;-59
2021/10/10 03:38:34;;;;;;;5.50;2.83;;;22.10;44.70;;;;;;4781748;29;20061;-59
2021/10/10 03:41:01;;;;;;;3.00;2.70;;;22.10;44.70;;;;;;4781863;29;20083;-59
2021/10/10 03:43:28;;;;;;;2.60;2.35;;;22.10;44.70;;;;;;4781580;29;20118;-59
2021/10/10 03:45:55;;;;;;;3.03;2.63;;;22.10;44.90;;;;;;4761360;29;20083;-60
2021/10/10 03:48:23;;;;;;;2.70;2.50;;;22.10;44.70;;;;;;4781578;29;20427;-59
2021/10/10 03:50:51;;;;;;;2.78;2.47;;;22.10;44.70;;;;;;4781409;29;20134;-59
2021/10/10 03:53:21;;;;;;;2.70;2.50;;;22.10;44.70;;;;;;4781364;29;20069;-59
2021/10/10 03:55:51;;;;;;;3.38;2.65;;;22.10;44.70;;;;;;4765022;29;20142;-59
2021/10/10 03:58:18;;;;;;;2.92;2.63;;;22.10;44.70;;;;;;4782055;29;20069;-59
2021/10/10 04:00:45;;;;;;;3.58;3.00;;;22.10;44.70;;;;;;4780955;29;20206;-61
2021/10/10 04:03:13;;;;;;;4.50;2.67;;;22.10;44.70;;;;;;4781486;29;20051;-59
2021/10/10 04:05:42;;;;;;;3.17;2.60;;;22.10;44.80;;;;;;4770823;29;20051;-59
2021/10/10 04:08:10;;;;;;;2.60;2.35;;;22.10;44.80;;;;;;4777219;29;20047;-59
2021/10/10 04:10:37;;;;;;;2.88;2.55;;;22.10;44.80;;;;;;4784792;29;20087;-59
2021/10/10 04:13:07;;;;;;;3.90;2.85;;;22.10;44.90;;;;;;4784944;29;20146;-59
2021/10/10 04:15:36;;;;;;;3.08;2.83;;;22.10;44.90;;;;;;4772655;29;20062;-59
2021/10/10 04:18:03;;;;;;;2.75;2.55;;;22.10;44.90;;;;;;4779382;29;20274;-60
2021/10/10 04:20:30;;;;;;;2.92;2.58;;;22.10;44.90;;;;;;4784944;29;20505;-59
2021/10/10 04:22:57;;;;;;;4.03;2.40;;;22.00;44.80;;;;;;4784954;29;20262;-59
2021/10/10 04:25:24;;;;;;;2.50;2.30;;;22.10;44.90;;;;;;4772970;29;20051;-59
2021/10/10 04:27:52;;;;;;;2.97;2.40;;;22.10;44.90;;;;;;4779481;29;20104;-59
2021/10/10 04:30:19;;;;;;;3.03;2.45;;;22.00;44.90;;;;;;4785034;29;20194;-59
2021/10/10 04:32:46;;;;;;;2.33;2.10;;;22.10;45.00;;;;;;4784253;29;20138;-59
2021/10/10 04:35:14;;;;;;;4.30;2.53;;;22.10;45.00;;;;;;4772850;29;20556;-60
2021/10/10 04:37:41;;;;;;;3.75;2.85;;;22.10;45.00;;;;;;4779676;29;20094;-59
2021/10/10 04:40:09;;;;;;;2.80;2.58;;;22.10;45.00;;;;;;4784173;29;20154;-61
2021/10/10 04:42:37;;;;;;;3.70;2.50;;;22.00;44.90;;;;;;4783815;29;20174;-59
2021/10/10 04:45:06;;;;;;;3.03;2.72;;;22.10;45.00;;;;;;4778082;29;20456;-60
2021/10/10 04:47:34;;;;;;;2.58;2.38;;;22.10;45.00;;;;;;4777023;29;20519;-59
2021/10/10 04:50:01;;;;;;;4.07;2.63;;;22.10;45.00;;;;;;4783872;29;20146;-60
2021/10/10 04:52:30;;;;;;;3.63;2.30;;;22.10;45.00;;;;;;4768744;30;20062;-60
2021/10/10 04:54:57;;;;;;;3.63;2.72;;;22.10;45.00;;;;;;4778874;29;20520;-59
2021/10/10 04:57:24;;;;;;;4.00;2.90;;;22.10;45.00;;;;;;4771706;30;20171;-59
2021/10/10 04:59:51;;;;;;;2.85;2.38;;;22.10;45.00;;;;;;4766333;30;20139;-59
2021/10/10 05:02:22;;;;;;;2.55;2.35;;;22.10;45.00;;;;;;4770833;30;20153;-60
2021/10/10 05:04:53;;;;;;;2.40;2.20;;;22.00;45.00;;;;;;4777717;29;20059;-59
2021/10/10 05:07:20;;;;;;;2.90;2.65;;;22.10;44.90;;;;;;4772366;30;20523;-59
2021/10/10 05:09:47;;;;;;;2.83;2.47;;;22.10;44.70;;;;;;4784073;29;20094;-59
2021/10/10 05:12:15;;;;;;;2.97;2.50;;;22.00;44.60;;;;;;4783996;29;20059;-59
2021/10/10 05:14:43;;;;;;;3.30;2.75;;;22.10;44.60;;;;;;4777902;29;20142;-59
2021/10/10 05:17:10;;;;;;;3.88;2.92;;;22.00;44.50;;;;;;4774377;29;20163;-60
2021/10/10 05:19:38;;;;;;;3.80;2.97;;;22.00;45.00;;;;;;4782354;29;20051;-59
2021/10/10 05:22:05;;;;;;;2.47;2.33;;;22.00;45.00;;;;;;4783515;29;20569;-59
2021/10/10 05:24:32;;;;;;;3.15;2.67;;;22.00;45.00;;;;;;4781665;29;20102;-60
2021/10/10 05:27:01;;;;;;;3.40;2.92;;;22.00;44.40;;;;;;4770622;30;20158;-59
2021/10/10 05:29:28;;;;;;;3.45;2.60;;;22.00;44.40;;;;;;4784149;29;20521;-59
2021/10/10 05:31:55;;;;;;;2.63;2.42;;;22.00;44.30;;;;;;4783048;29;20477;-59
2021/10/10 05:34:22;;;;;;;3.97;3.15;;;22.00;44.30;;;;;;4783982;29;20095;-59
2021/10/10 05:36:50;;;;;;;3.60;2.65;;;22.00;44.30;;;;;;4768476;29;20564;-59
2021/10/10 05:39:17;;;;;;;3.38;3.08;;;22.00;44.20;;;;;;4783668;29;20058;-60
2021/10/10 05:41:44;;;;;;;2.92;2.63;;;22.00;44.20;;;;;;4783484;29;20139;-59
2021/10/10 05:44:11;;;;;;;3.60;3.20;;;22.00;44.20;;;;;;4783598;29;20120;-59
2021/10/10 05:46:38;;;;;;;3.20;2.80;;;22.00;44.10;;;;;;4766418;29;20141;-59
2021/10/10 05:49:06;;;;;;;4.22;3.38;;;22.00;44.10;;;;;;4783886;29;20167;-59
2021/10/10 05:51:33;;;;;;;3.88;3.47;;;22.00;44.00;;;;;;4783333;29;20051;-60
2021/10/10 05:54:01;;;;;;;3.55;2.95;;;22.00;44.00;;;;;;4782929;29;20302;-59
2021/10/10 05:56:31;;;;;;;5.07;2.88;;;22.00;44.00;;;;;;4765783;29;20147;-59
2021/10/10 05:59:04;;;;;;;3.30;2.70;;;22.00;44.50;;;;;;4783182;29;20094;-59
2021/10/10 06:01:38;;;;;;;4.97;3.37;;;22.00;43.90;;;;;;4783321;29;20343;-59
2021/10/10 06:04:07;;;;;;;3.38;2.85;;;22.00;43.90;;;;;;4782966;29;20056;-59
2021/10/10 06:06:34;;;;;;;3.55;2.90;;;22.00;43.90;;;;;;4765511;29;20592;-60
2021/10/10 06:09:03;;;;;;;3.58;3.28;;;22.00;43.90;;;;;;4782922;29;20134;-59
2021/10/10 06:11:30;;;;;;;4.13;3.70;;;22.00;43.90;;;;;;4783579;29;20451;-59
2021/10/10 06:13:59;;;;;;;3.45;3.00;;;22.00;43.80;;;;;;4782868;29;20101;-59
2021/10/10 06:16:26;;;;;;;3.60;3.17;;;22.00;43.80;;;;;;4766682;29;20161;-59
2021/10/10 06:18:54;;;;;;;4.75;3.45;;;22.00;43.80;;;;;;4782515;29;20701;-59
2021/10/10 06:21:22;;;;;;;4.03;3.40;;;22.00;43.80;;;;;;4781751;30;20539;-59
2021/10/10 06:23:49;;;;;;;3.88;3.50;;;22.00;43.80;;;;;;4782812;29;20090;-59
2021/10/10 06:26:16;;;;;;;4.03;3.05;;;22.00;43.70;;;;;;4765229;29;20110;-59
2021/10/10 06:28:43;;;;;;;3.90;3.50;;;22.00;43.70;;;;;;4783020;29;20422;-59
2021/10/10 06:31:10;;;;;;;3.97;3.50;;;22.00;43.70;;;;;;4763697;29;20062;-60
2021/10/10 06:33:38;;;;;;;4.32;3.63;;;22.00;43.70;;;;;;4764704;30;20056;-60
2021/10/10 06:36:05;;;;;;;5.07;3.50;;;22.00;43.70;;;;;;4761630;30;20051;-59
2021/10/10 06:38:32;;;;;;;3.67;3.38;;;22.00;43.60;;;;;;4782525;29;20059;-59
2021/10/10 06:40:59;;;;;;;3.97;3.50;;;22.10;43.60;;;;;;4782987;29;20048;-60
2021/10/10 06:43:26;;;;;;;3.88;3.50;;;22.10;43.60;;;;;;4781973;29;20058;-59
2021/10/10 06:45:53;;;;;;;5.13;4.00;;;22.10;43.60;;;;;;4768355;29;20234;-59
2021/10/10 06:48:20;;;;;;;3.83;3.20;;;22.10;43.50;;;;;;4782281;29;20118;-59
2021/10/10 06:50:48;;;;;;;4.32;3.22;;;22.10;43.50;;;;;;4777236;29;20083;-59
2021/10/10 06:53:15;;;;;;;3.50;3.20;;;22.10;43.50;;;;;;4764506;30;20138;-59
2021/10/10 06:55:42;;;;;;;4.13;3.10;;;22.10;43.50;;;;;;4761980;30;20517;-59
2021/10/10 06:58:09;;;;;;;3.17;2.88;;;22.10;43.40;;;;;;4776787;29;20590;-59
2021/10/10 07:00:36;;;;;;;3.80;3.25;;;22.10;43.40;;;;;;4782372;29;20138;-59
2021/10/10 07:03:03;;;;;;;3.97;3.58;;;22.10;43.30;;;;;;4781900;29;20085;-59
2021/10/10 07:05:30;;;;;;;3.83;3.33;;;22.10;43.30;;;;;;4768455;29;20335;-59
2021/10/10 07:07:57;;;;;;;4.25;3.42;;;22.10;43.30;;;;;;4776648;29;20154;-60
2021/10/10 07:10:24;;;;;;;3.40;3.10;;;22.10;43.20;;;;;;4781918;29;20116;-59
2021/10/10 07:12:53;;;;;;;5.18;3.88;;;22.10;43.20;;;;;;4764210;29;20146;-59
2021/10/10 07:15:20;;;;;;;3.35;3.05;;;22.20;43.20;;;;;;4760537;30;20530;-59
2021/10/10 07:17:48;;;;;;;3.55;3.25;;;22.20;43.10;;;;;;4777765;29;20087;-59
2021/10/10 07:20:26;;;;;;;3.88;3.47;;;22.20;43.10;;;;;;4781696;29;20349;-59
2021/10/10 07:23:03;;;;;;;3.30;2.75;;;22.20;43.10;;;;;;4781922;29;20105;-59
2021/10/10 07:25:30;;;;;;;3.22;2.92;;;22.20;43.00;;;;;;4771285;29;20519;-59
2021/10/10 07:27:57;;;;;;;3.13;2.88;;;22.20;43.00;;;;;;4777463;29;20098;-59
2021/10/10 07:30:24;;;;;;;4.95;3.25;;;22.20;43.00;;;;;;4782127;29;20140;-59
2021/10/10 07:32:51;;;;;;;3.25;2.95;;;22.20;42.90;;;;;;4781371;29;20055;-59
2021/10/10 07:35:18;;;;;;;4.22;3.30;;;22.30;42.90;;;;;;4770098;29;20051;-59
2021/10/10 07:37:46;;;;;;;3.92;2.78;;;22.30;42.90;;;;;;4775659;30;20055;-59
2021/10/10 07:40:13;;;;;;;3.40;3.10;;;22.30;42.80;;;;;;4781834;29;20062;-59
2021/10/10 07:42:40;;;;;;;5.25;3.33;;;22.30;42.80;;;;;;4780990;29;20557;-59
2021/10/10 07:45:10;;;;;;;2.70;2.50;;;22.30;42.80;;;;;;4775087;29;20096;-59
2021/10/10 07:47:50;;;;;;;3.53;3.08;;;22.30;42.80;;;;;;4771913;30;20484;-59
2021/10/10 07:50:21;;;;;;;3.20;2.90;;;22.30;42.70;;;;;;4781211;29;20048;-59
2021/10/10 07:52:49;;;;;;;3.00;2.70;;;22.30;42.70;;;;;;4781757;29;20588;-59
2021/10/10 07:55:16;;;;;;;3.30;2.85;;;22.30;42.70;;;;;;4771217;29;20055;-59
2021/10/10 07:57:44;;;;;;;3.70;3.08;;;22.20;42.70;;;;;;4775595;30;20063;-59
2021/10/10 08:00:11;;;;;;;4.95;2.95;;;22.30;42.80;;;;;;4781291;29;20669;-59
2021/10/10 08:02:50;;;;;;;2.90;2.70;;;22.20;42.70;;;;;;4780907;29;20051;-59
2021/10/10 08:05:18;;;;;;;3.35;3.05;;;22.20;42.70;;;;;;4770376;29;20653;-59
2021/10/10 08:07:45;;;;;;;2.90;2.60;;;22.20;42.70;;;;;;4774865;30;20162;-59
2021/10/10 08:10:13;;;;;;;3.85;3.20;;;22.30;42.70;;;;;;4781597;29;20108;-59
2021/10/10 08:12:40;;;;;;;3.17;2.50;;;22.30;42.60;;;;;;4781331;29;20056;-59
2021/10/10 08:15:07;;;;;;;2.72;2.53;;;22.30;42.60;;;;;;4774762;29;20124;-59
2021/10/10 08:17:37;;;;;;;2.93;2.63;;;22.30;42.60;;;;;;4775509;29;20774;-59
2021/10/10 08:20:07;;;;;;;2.60;2.40;;;22.30;42.60;;;;;;4781088;29;20158;-59
2021/10/10 08:22:35;;;;;;;2.95;2.67;;;22.30;42.60;;;;;;4781560;29;20087;-59
2021/10/10 08:25:07;;;;;;;2.70;2.50;;;22.30;42.60;;;;;;4773575;29;20055;-59
2021/10/10 08:27:36;;;;;;;2.65;2.20;;;22.30;42.50;;;;;;4773557;29;20051;-59
2021/10/10 08:30:05;;;;;;;2.42;2.22;;;22.30;42.50;;;;;;4781935;29;20215;-59
2021/10/10 08:32:32;;;;;;;3.45;2.70;;;22.30;42.50;;;;;;4781352;29;20142;-59
2021/10/10 08:34:59;;;;;;;3.17;2.88;;;22.30;42.50;;;;;;4776646;29;20059;-59
2021/10/10 08:37:26;;;;;;;3.15;2.85;;;22.30;42.50;;;;;;4772016;29;20427;-59
2021/10/10 08:39:53;;;;;;;2.78;2.45;;;22.30;42.50;;;;;;4781042;29;20079;-59
2021/10/10 08:42:33;;;;;;;2.95;2.20;;;22.30;42.50;;;;;;4781280;29;20051;-59
2021/10/10 08:45:10;;;;;;;2.58;2.38;;;22.30;42.50;;;;;;4774033;29;20058;-60
2021/10/10 08:47:43;;;;;;;2.85;2.65;;;22.30;42.50;;;;;;4756721;30;20060;-59
2021/10/10 08:50:29;;;;;;;2.80;2.60;;;22.30;42.60;;;;;;4762722;30;20501;-59
2021/10/10 08:52:59;;;;;;;2.78;2.47;;;22.30;42.60;;;;;;4763613;30;20150;-59
2021/10/10 08:55:31;;;;;;;2.15;2.03;;;22.30;42.60;;;;;;4761991;30;20138;-59
2021/10/10 08:57:59;;;;;;;3.17;2.90;;;22.20;42.50;;;;;;4779678;29;20051;-59
2021/10/10 09:00:34;;;;;;;2.67;2.47;;;22.30;42.60;;;;;;4768299;30;20233;-59
2021/10/10 09:03:11;;;;;;;2.60;2.40;;;22.30;42.50;;;;;;4784172;29;20355;-59
2021/10/10 09:05:49;;;;;;;3.25;2.42;;;22.30;42.50;;;;;;4767379;29;20528;-59
2021/10/10 09:08:19;;;;;;;;;;;22.30;42.50;;;;;;4784316;29;20147;-59
2021/10/10 09:10:57;;;;;;;3.10;2.80;;;22.30;42.50;;;;;;4784450;29;20346;-59
2021/10/10 09:13:33;;;;;;;2.97;2.40;;;22.30;42.50;;;;;;4782860;29;20063;-59
2021/10/10 09:16:01;;;;;;;2.30;2.10;;;22.30;42.50;;;;;;4767566;29;20509;-59
2021/10/10 09:18:40;;;;;;;2.60;2.38;;;22.30;42.50;;;;;;4784170;29;20126;-59
2021/10/10 09:21:27;;;;;;;3.67;3.10;;;22.30;42.50;;;;;;4783725;29;20091;-59
2021/10/10 09:23:56;;;;;;;3.05;2.58;;;22.30;42.50;;;;;;4784264;29;20168;-59
2021/10/10 09:26:24;;;;;;;2.80;2.60;;;22.30;42.40;;;;;;4767220;29;20120;-59
2021/10/10 09:28:51;;;;;;;2.50;2.30;;;22.30;42.40;;;;;;4784003;29;20156;-59
2021/10/10 09:31:18;;;;;;;2.78;2.58;;;22.30;42.40;;;;;;4783720;29;20134;-59
2021/10/10 09:33:57;;;;;;;2.80;2.58;;;22.30;42.40;;;;;;4783752;29;20047;-59
2021/10/10 09:36:27;;;;;;;2.47;2.28;;;22.30;42.40;;;;;;4765919;29;20075;-59
2021/10/10 09:39:10;;;;;;;2.78;2.58;;;22.30;42.40;;;;;;4783639;29;20481;-59
2021/10/10 09:41:46;;;;;;;3.13;2.70;;;22.30;42.40;;;;;;4782784;29;20135;-59
2021/10/10 09:44:24;;;;;;;2.40;2.08;;;22.30;42.40;;;;;;4783113;29;20113;-59
2021/10/10 09:46:59;;;;;;;3.33;2.60;;;22.30;42.40;;;;;;4768243;29;20089;-59
2021/10/10 09:49:29;;;;;;;2.70;2.50;;;22.20;42.40;;;;;;4783584;29;20048;-59
2021/10/10 09:52:11;;;;;;;2.78;2.50;;;22.30;42.50;;;;;;4783693;29;20138;-59
2021/10/10 09:54:53;;;;;;;2.67;2.13;;;22.20;42.40;;;;;;4775937;29;20156;-59
2021/10/10 09:57:22;;;;;;;3.38;3.03;;;22.20;42.40;;;;;;4772757;29;20823;-59
2021/10/10 09:59:50;;;;;;;3.53;3.10;;;22.20;42.40;;;;;;4783170;29;20123;-59
2021/10/10 10:02:18;;;;;;;2.45;2.22;;;22.30;42.40;;;;;;4783137;29;20047;-59
2021/10/10 10:04:49;;;;;;;3.15;2.83;;;22.20;42.30;;;;;;4776632;29;20268;-59
2021/10/10 10:07:19;;;;;;;2.97;2.78;;;22.30;42.40;;;;;;4767417;30;20522;-59
2021/10/10 10:09:50;;;;;;;2.95;2.70;;;22.30;42.40;;;;;;4765201;30;20052;-59
2021/10/10 10:12:20;;;;;;;3.22;2.92;;;22.30;42.30;;;;;;4764443;30;20122;-59
2021/10/10 10:15:02;;;;;;;3.10;2.63;;;22.30;42.30;;;;;;4760806;30;20055;-60
2021/10/10 10:17:32;;;;;;;3.03;2.80;;;22.30;42.30;;;;;;4772683;29;20069;-59
2021/10/10 10:20:02;;;;;;;3.05;2.78;;;22.30;42.30;;;;;;4781811;29;20130;-59
2021/10/10 10:22:34;;;;;;;3.60;3.00;;;22.30;42.30;;;;;;4782436;29;20134;-59
2021/10/10 10:25:06;;;;;;;3.80;3.45;;;22.30;42.30;;;;;;4776239;29;20091;-59
2021/10/10 10:27:33;;;;;;;3.17;2.78;;;22.30;42.30;;;;;;4772337;29;20055;-59
2021/10/10 10:30:01;;;;;;;3.88;2.92;;;22.30;42.30;;;;;;4783113;29;20108;-59
2021/10/10 10:32:34;;;;;;;3.83;3.42;;;22.30;42.30;;;;;;4782309;29;20116;-59
2021/10/10 10:35:07;;;;;;;2.80;2.58;;;22.30;42.30;;;;;;4775191;29;20540;-59
2021/10/10 10:37:50;;;;;;;3.78;3.42;;;22.30;42.30;;;;;;4773731;29;20508;-59
2021/10/10 10:40:30;;;;;;;3.30;3.05;;;22.30;42.20;;;;;;4782550;29;20062;-59
2021/10/10 10:43:00;;;;;;;3.25;2.95;;;22.30;42.20;;;;;;4780771;30;20075;-59
2021/10/10 10:45:36;;;;;;;3.28;2.95;;;22.30;42.20;;;;;;4768988;29;20063;-59
2021/10/10 10:48:06;;;;;;;3.58;3.00;;;22.30;42.20;;;;;;4776818;29;20134;-59
2021/10/10 10:50:42;;;;;;;3.47;3.17;;;22.30;42.30;;;;;;4780994;29;20057;-59
2021/10/10 10:53:14;;;;;;;3.20;2.90;;;22.30;42.30;;;;;;4782217;29;20094;-59
2021/10/10 10:55:52;;;;;;;3.58;3.28;;;22.30;42.30;;;;;;4770619;29;20146;-59
2021/10/10 10:58:19;;;;;;;3.75;3.38;;;22.30;42.30;;;;;;4766887;30;20090;-59
2021/10/10 11:00:48;;;;;;;3.58;3.28;;;22.30;42.20;;;;;;4782137;29;20053;-59
2021/10/10 11:03:28;;;;;;;4.47;3.72;;;22.30;42.20;;;;;;4781885;29;20059;-60
2021/10/10 11:06:16;;;;;;;3.90;3.20;;;22.30;42.20;;;;;;4766724;29;20138;-59
2021/10/10 11:08:44;;;;;;;4.63;3.30;;;22.30;42.20;;;;;;4781742;29;20063;-59
2021/10/10 11:11:23;;;;;;;3.42;3.13;;;22.30;42.20;;;;;;4781828;29;20108;-59
2021/10/10 11:13:59;;;;;;;3.40;3.10;;;22.30;42.20;;;;;;4782306;29;20051;-59
2021/10/10 11:16:33;;;;;;;3.85;3.40;;;22.30;42.10;;;;;;4764649;29;20809;-59
2021/10/10 11:19:11;;;;;;;4.05;3.50;;;22.30;42.10;;;;;;4782098;29;20309;-59
2021/10/10 11:21:42;;;;;;;3.40;3.10;;;22.30;42.10;;;;;;4782079;29;20051;-59
2021/10/10 11:24:24;;;;;;;4.05;3.67;;;22.30;42.10;;;;;;4781379;29;20515;-59
2021/10/10 11:26:52;;;;;;;3.40;3.10;;;22.30;42.10;;;;;;4765392;29;20055;-59
2021/10/10 11:29:24;;;;;;;4.53;3.55;;;22.30;42.10;;;;;;4781223;29;20150;-60
2021/10/10 11:31:53;;;;;;;3.75;3.40;;;22.30;42.10;;;;;;4781837;29;20086;-59
2021/10/10 11:34:24;;;;;;;3.58;3.28;;;22.30;42.10;;;;;;4781668;29;20517;-61
2021/10/10 11:36:56;;;;;;;3.60;3.25;;;22.30;42.10;;;;;;4765970;29;20059;-59
2021/10/10 11:39:31;;;;;;;3.97;3.60;;;22.30;42.10;;;;;;4780920;29;20205;-59
2021/10/10 11:42:01;;;;;;;3.40;3.10;;;22.30;42.00;;;;;;4781874;29;20089;-59
2021/10/10 11:44:36;;;;;;;;;;;22.30;42.00;;;;;;4779728;29;20079;-59
2021/10/10 11:47:06;;;;;;;4.22;3.83;;;22.30;42.00;;;;;;4771810;29;19935;-59
2021/10/10 11:49:40;;;;;;;3.63;3.33;;;22.30;42.00;;;;;;4781403;29;20055;-59
2021/10/10 11:52:22;;;;;;;4.25;3.72;;;22.30;42.00;;;;;;4781225;29;20138;-59
2021/10/10 11:55:02;;;;;;;4.43;3.67;;;22.30;42.00;;;;;;4775027;29;20070;-59
2021/10/10 11:57:30;;;;;;;4.17;3.77;;;22.30;42.50;;;;;;4771971;29;20082;-59
2021/10/10 12:00:01;;;;;;;4.22;3.42;;;22.30;42.00;;;;;;4782280;29;20143;-59
2021/10/10 12:02:37;;;;;;;4.43;4.03;;;22.30;42.00;;;;;;4781474;29;20055;-59
2021/10/10 12:05:09;;;;;;;3.92;3.60;;;22.30;42.00;;;;;;4774155;29;20058;-59
2021/10/10 12:07:38;;;;;;;3.40;3.10;;;22.30;41.90;;;;;;4770226;30;20415;-59
2021/10/10 12:10:08;;;;;;;3.55;3.20;;;22.30;42.00;;;;;;4781009;29;20082;-60
2021/10/10 12:12:35;;;;;;;3.42;3.13;;;22.30;42.00;;;;;;4781748;29;20200;-59
2021/10/10 12:15:04;;;;;;;4.22;3.40;;;22.30;42.00;;;;;;4774520;29;20138;-59
2021/10/10 12:17:48;;;;;;;3.70;3.40;;;22.30;42.00;;;;;;4773910;29;20406;-59
2021/10/10 12:20:26;;;;;;;3.83;3.50;;;22.30;42.00;;;;;;4781587;29;20144;-59
2021/10/10 12:23:02;;;;;;;5.32;3.85;;;22.20;42.00;;;;;;4780983;29;20078;-59
2021/10/10 12:25:42;;;;;;;4.97;4.32;;;22.30;42.10;;;;;;4770131;29;21832;-59
2021/10/10 12:28:16;;;;;;;3.65;3.35;;;22.20;42.10;;;;;;4776719;29;20593;-59
2021/10/10 12:30:55;;;;;;;3.95;3.65;;;22.20;42.10;;;;;;4784476;29;20142;-59
2021/10/10 12:33:35;;;;;;;4.68;4.20;;;22.20;42.10;;;;;;4784521;29;20055;-59
2021/10/10 12:36:09;;;;;;;4.78;4.07;;;22.20;42.10;;;;;;4769509;29;20075;-59
2021/10/10 12:38:42;;;;;;;3.70;3.35;;;22.20;42.20;;;;;;4784391;29;20416;-60
2021/10/10 12:41:27;;;;;;;4.43;3.78;;;22.20;42.20;;;;;;4778340;30;20111;-59
2021/10/10 12:44:15;;;;;;;5.00;3.60;;;22.20;42.20;;;;;;4776910;29;20138;-59
2021/10/10 12:46:54;;;;;;;4.00;3.60;;;22.20;42.30;;;;;;4758829;29;20093;-59
2021/10/10 12:49:33;;;;;;;4.57;3.85;;;22.10;42.20;;;;;;4780945;29;20078;-59
2021/10/10 12:52:03;;;;;;;3.70;3.40;;;22.10;42.20;;;;;;4778788;30;20063;-59
2021/10/10 12:54:31;;;;;;;4.13;3.72;;;22.20;42.30;;;;;;4781124;29;20206;-59
2021/10/10 12:57:09;;;;;;;4.05;3.55;;;22.10;42.20;;;;;;4774925;29;20097;-59
2021/10/10 12:59:38;;;;;;;4.20;3.45;;;22.20;42.30;;;;;;4783886;29;20064;-59
2021/10/10 13:02:10;;;;;;;4.55;4.15;;;22.10;42.30;;;;;;4784599;29;20138;-59